Time;durP1;ratioP1;P1;durP2;ratioP2;P2;SDS_P1;SDS_P2;PMS_P1;PMS_P2;Temp;Humidity;BMP_temperature;BMP_pressure;BME280_temperature;BME280_humidity;BME280_pressure;Samples;Min_cycle;Max_cycle;Signal;HPM_P1;HPM_P2
2022/02/28 00:00:15;;;;;;;16.00;9.23;;;3.90;77.70;;;;;;5013342;28;25063;-72
2022/02/28 00:02:42;;;;;;;16.88;6.85;;;3.90;77.40;;;;;;5010555;28;25169;-72
2022/02/28 00:05:08;;;;;;;11.57;7.22;;;3.90;77.30;;;;;;5010225;28;25060;-72
2022/02/28 00:07:34;;;;;;;13.50;7.60;;;3.80;77.10;;;;;;5010942;28;25096;-73
2022/02/28 00:09:59;;;;;;;19.70;7.53;;;3.80;77.20;;;;;;4988530;28;25100;-73
2022/02/28 00:12:25;;;;;;;13.05;7.13;;;3.80;77.60;;;;;;5006446;28;25060;-72
2022/02/28 00:14:51;;;;;;;11.52;7.22;;;3.80;78.00;;;;;;5010145;28;25054;-72
2022/02/28 00:17:17;;;;;;;16.83;7.93;;;3.70;78.00;;;;;;5009908;28;25064;-72
2022/02/28 00:19:42;;;;;;;15.93;8.15;;;3.70;78.40;;;;;;5011071;28;25071;-73
2022/02/28 00:22:08;;;;;;;12.23;7.38;;;3.60;78.20;;;;;;5009993;28;25105;-73
2022/02/28 00:24:33;;;;;;;10.65;7.93;;;3.60;78.70;;;;;;5009295;28;25076;-73
2022/02/28 00:26:59;;;;;;;15.90;7.40;;;3.50;78.90;;;;;;5010581;28;25158;-72
2022/02/28 00:29:25;;;;;;;14.93;7.88;;;3.50;79.50;;;;;;5011252;28;25076;-72
2022/02/28 00:31:50;;;;;;;16.58;8.13;;;3.50;79.90;;;;;;5009788;28;25150;-73
2022/02/28 00:34:16;;;;;;;12.27;7.55;;;3.40;79.90;;;;;;5009076;28;25063;-73
2022/02/28 00:36:41;;;;;;;18.30;8.40;;;3.40;79.90;;;;;;5009531;28;25124;-72
2022/02/28 00:39:07;;;;;;;11.60;7.38;;;3.40;79.80;;;;;;5009086;28;25069;-72
2022/02/28 00:41:32;;;;;;;14.65;7.00;;;3.40;79.70;;;;;;5009305;28;25069;-73
2022/02/28 00:43:58;;;;;;;13.63;8.35;;;3.40;79.60;;;;;;5009355;28;25068;-73
2022/02/28 00:46:24;;;;;;;17.65;8.40;;;3.40;79.80;;;;;;4992209;28;25057;-72
2022/02/28 00:48:49;;;;;;;14.52;7.85;;;3.40;80.00;;;;;;5009440;28;25103;-72
2022/02/28 00:51:15;;;;;;;16.73;8.73;;;3.40;80.00;;;;;;5008762;28;25042;-72
2022/02/28 00:53:41;;;;;;;16.48;8.32;;;3.30;79.80;;;;;;5008849;28;25089;-73
2022/02/28 00:56:06;;;;;;;16.35;9.73;;;3.30;80.20;;;;;;5008651;28;25083;-74
2022/02/28 00:58:32;;;;;;;21.45;8.55;;;3.30;80.20;;;;;;5009672;28;25069;-73
2022/02/28 01:00:58;;;;;;;16.92;8.45;;;3.20;80.10;;;;;;5005448;28;25069;-72
2022/02/28 01:03:25;;;;;;;14.45;8.02;;;3.20;80.40;;;;;;4997791;28;25137;-73
2022/02/28 01:05:51;;;;;;;17.23;8.43;;;3.20;80.50;;;;;;4994527;28;25062;-73
2022/02/28 01:08:16;;;;;;;22.42;8.95;;;3.20;80.40;;;;;;5008798;28;25082;-73
2022/02/28 01:10:42;;;;;;;14.63;8.07;;;3.20;80.50;;;;;;5009859;28;25072;-72
2022/02/28 01:13:10;;;;;;;17.45;8.70;;;3.20;80.50;;;;;;5011124;28;25047;-73
2022/02/28 01:15:38;;;;;;;15.45;9.02;;;3.20;80.50;;;;;;5009830;28;25059;-73
2022/02/28 01:18:04;;;;;;;14.90;8.40;;;3.20;80.60;;;;;;5010391;28;25072;-73
2022/02/28 01:20:30;;;;;;;13.25;7.72;;;3.10;80.60;;;;;;5001976;28;25223;-72
2022/02/28 01:22:55;;;;;;;15.15;8.40;;;3.20;80.60;;;;;;5011360;28;25106;-74
2022/02/28 01:25:22;;;;;;;15.07;8.07;;;3.20;80.60;;;;;;4991088;28;25112;-73
2022/02/28 01:27:48;;;;;;;14.00;8.55;;;3.20;80.30;;;;;;5006561;28;25079;-74
2022/02/28 01:30:15;;;;;;;17.38;7.82;;;3.10;81.20;;;;;;5010725;28;25076;-73
2022/02/28 01:32:41;;;;;;;16.10;8.57;;;3.00;81.10;;;;;;5011114;28;25080;-74
2022/02/28 01:35:08;;;;;;;13.93;7.97;;;3.00;81.40;;;;;;5009735;28;25056;-75
2022/02/28 01:37:34;;;;;;;12.05;7.75;;;3.10;81.50;;;;;;5010343;28;25165;-73
2022/02/28 01:40:00;;;;;;;19.02;8.52;;;3.10;81.00;;;;;;5001017;28;25063;-73
2022/02/28 01:42:25;;;;;;;14.90;9.15;;;3.00;81.40;;;;;;4993738;28;25074;-73
2022/02/28 01:44:51;;;;;;;12.20;8.05;;;3.00;81.10;;;;;;4992358;28;25111;-74
2022/02/28 01:47:16;;;;;;;16.90;8.48;;;2.90;81.40;;;;;;5012597;28;25105;-74
2022/02/28 01:49:42;;;;;;;15.20;8.48;;;2.90;81.60;;;;;;5012998;28;25135;-74
2022/02/28 01:52:08;;;;;;;15.65;8.50;;;2.80;82.20;;;;;;5016829;28;25077;-72
2022/02/28 01:54:33;;;;;;;14.90;8.55;;;2.70;82.80;;;;;;5022248;28;25067;-73
2022/02/28 01:56:59;;;;;;;16.00;8.35;;;2.70;83.30;;;;;;5025188;28;25064;-72
2022/02/28 01:59:25;;;;;;;15.68;8.40;;;2.70;83.10;;;;;;5032224;28;25097;-73
2022/02/28 02:01:51;;;;;;;17.38;8.77;;;2.70;83.10;;;;;;5032961;28;25073;-73
2022/02/28 02:04:16;;;;;;;16.35;9.95;;;2.70;83.50;;;;;;5030865;28;25058;-73
2022/02/28 02:06:42;;;;;;;14.80;9.05;;;2.60;83.80;;;;;;5032919;28;25076;-74
2022/02/28 02:09:08;;;;;;;16.48;8.35;;;2.50;84.20;;;;;;5030200;28;25155;-75
2022/02/28 02:11:33;;;;;;;20.10;9.07;;;2.50;85.00;;;;;;5001762;28;25142;-72
2022/02/28 02:13:59;;;;;;;13.95;9.20;;;2.60;85.20;;;;;;5016036;28;25080;-76
2022/02/28 02:16:25;;;;;;;13.10;8.05;;;2.60;85.20;;;;;;4992487;28;25082;-73
2022/02/28 02:18:51;;;;;;;14.50;9.05;;;2.50;85.30;;;;;;5008955;28;25096;-73
2022/02/28 02:21:16;;;;;;;11.05;7.68;;;2.50;85.70;;;;;;5009009;28;25092;-73
2022/02/28 02:23:42;;;;;;;15.35;8.45;;;2.40;86.60;;;;;;5008781;28;25071;-71
2022/02/28 02:26:14;;;;;;;14.13;8.25;;;2.50;86.10;;;;;;5008150;28;25068;-74
2022/02/28 02:28:40;;;;;;;19.13;8.90;;;2.40;86.10;;;;;;5008346;28;25076;-73
2022/02/28 02:31:06;;;;;;;15.80;8.45;;;2.20;87.00;;;;;;5007408;28;25063;-74
2022/02/28 02:33:33;;;;;;;15.90;8.48;;;2.20;87.60;;;;;;5007918;28;25166;-73
2022/02/28 02:36:00;;;;;;;18.13;8.88;;;2.20;87.90;;;;;;5009067;28;25060;-74
2022/02/28 02:38:26;;;;;;;20.15;9.20;;;2.20;88.10;;;;;;5008593;28;25073;-72
2022/02/28 02:40:52;;;;;;;14.40;8.73;;;2.20;88.70;;;;;;5009103;28;25069;-72
2022/02/28 02:43:19;;;;;;;13.48;8.27;;;2.20;88.30;;;;;;5008106;28;25065;-72
2022/02/28 02:45:44;;;;;;;17.25;9.20;;;2.20;88.50;;;;;;5008282;28;25166;-72
2022/02/28 02:48:18;;;;;;;16.88;8.57;;;2.10;89.00;;;;;;5012952;28;25164;-74
2022/02/28 02:50:44;;;;;;;16.08;8.50;;;2.00;89.10;;;;;;5015053;28;25062;-74
2022/02/28 02:53:11;;;;;;;15.07;8.82;;;2.00;89.30;;;;;;5014165;28;25058;-73
2022/02/28 02:55:36;;;;;;;20.58;9.38;;;2.00;90.00;;;;;;5014347;28;25096;-74
2022/02/28 02:58:03;;;;;;;14.88;9.35;;;2.00;90.00;;;;;;5013926;28;25101;-73
2022/02/28 03:00:29;;;;;;;14.68;8.98;;;2.00;90.00;;;;;;5005706;28;25079;-73
2022/02/28 03:02:55;;;;;;;17.73;9.50;;;2.00;90.10;;;;;;5013558;28;25086;-75
2022/02/28 03:05:21;;;;;;;16.25;9.25;;;1.90;90.10;;;;;;5014749;28;25075;-73
2022/02/28 03:07:46;;;;;;;13.65;9.00;;;1.90;90.40;;;;;;5014970;28;25075;-74
2022/02/28 03:10:12;;;;;;;14.68;8.75;;;1.80;90.60;;;;;;5013902;28;25066;-73
2022/02/28 03:12:39;;;;;;;14.48;8.52;;;1.80;90.90;;;;;;5014132;28;25093;-74
2022/02/28 03:15:06;;;;;;;17.50;9.10;;;1.80;91.00;;;;;;5013528;28;25099;-74
2022/02/28 03:17:33;;;;;;;15.25;9.43;;;1.80;91.00;;;;;;5013838;28;25054;-73
2022/02/28 03:19:58;;;;;;;14.43;8.70;;;1.70;91.20;;;;;;5012703;28;25074;-71
2022/02/28 03:22:24;;;;;;;15.82;8.57;;;1.60;91.50;;;;;;4996467;28;25057;-72
2022/02/28 03:24:49;;;;;;;16.70;9.90;;;1.60;91.90;;;;;;5013418;28;25074;-75
2022/02/28 03:27:15;;;;;;;20.08;9.23;;;1.60;92.10;;;;;;5013038;28;25086;-73
2022/02/28 03:29:40;;;;;;;16.98;8.75;;;1.60;92.10;;;;;;5012154;28;25058;-73
2022/02/28 03:32:06;;;;;;;20.30;9.52;;;1.60;92.00;;;;;;5013673;28;25084;-72
2022/02/28 03:34:32;;;;;;;17.15;9.65;;;1.60;92.10;;;;;;5013553;28;25063;-73
2022/02/28 03:36:58;;;;;;;15.93;10.02;;;1.60;92.20;;;;;;4995879;28;25065;-72
2022/02/28 03:39:24;;;;;;;21.00;10.25;;;1.50;92.20;;;;;;5012884;28;25135;-72
2022/02/28 03:41:53;;;;;;;20.63;8.88;;;1.50;92.50;;;;;;5013427;28;25106;-72
2022/02/28 03:44:19;;;;;;;14.27;8.50;;;1.40;92.80;;;;;;4995945;28;25083;-73
2022/02/28 03:46:45;;;;;;;19.00;9.50;;;1.50;92.80;;;;;;5013020;28;25104;-73
2022/02/28 03:49:10;;;;;;;18.15;9.52;;;1.40;93.00;;;;;;5012767;28;25123;-74
2022/02/28 03:51:36;;;;;;;17.17;9.07;;;1.50;93.00;;;;;;5012699;28;25134;-73
2022/02/28 03:54:02;;;;;;;20.20;8.80;;;1.40;92.80;;;;;;5013601;28;25151;-73
2022/02/28 03:56:27;;;;;;;16.17;9.95;;;1.40;93.00;;;;;;5012810;28;25144;-75
2022/02/28 03:58:53;;;;;;;14.43;9.00;;;1.40;93.00;;;;;;5012237;28;25110;-72
2022/02/28 04:01:18;;;;;;;19.63;8.90;;;1.40;93.20;;;;;;5010600;28;25075;-72
2022/02/28 04:03:44;;;;;;;15.10;9.57;;;1.40;93.10;;;;;;5010229;28;25061;-73
2022/02/28 04:06:10;;;;;;;16.85;8.60;;;1.40;93.10;;;;;;5011643;28;25077;-71
2022/02/28 04:08:36;;;;;;;15.13;8.50;;;1.40;93.10;;;;;;5027984;28;25074;-75
2022/02/28 04:11:02;;;;;;;14.57;8.23;;;1.50;93.00;;;;;;5031218;28;25136;-73
2022/02/28 04:13:27;;;;;;;17.35;8.40;;;1.50;92.90;;;;;;5011368;28;25086;-73
2022/02/28 04:15:53;;;;;;;14.15;8.27;;;1.50;92.80;;;;;;5010793;28;25147;-73
2022/02/28 04:18:19;;;;;;;17.13;8.70;;;1.50;92.70;;;;;;5010160;28;25065;-74
2022/02/28 04:20:47;;;;;;;16.55;8.52;;;1.50;92.70;;;;;;5010441;28;25077;-73
2022/02/28 04:23:13;;;;;;;14.93;8.55;;;1.40;92.70;;;;;;5009929;28;25069;-73
2022/02/28 04:25:39;;;;;;;14.68;8.38;;;1.40;92.70;;;;;;5009692;28;25149;-73
2022/02/28 04:28:04;;;;;;;17.77;9.18;;;1.40;92.70;;;;;;5009551;28;25084;-73
2022/02/28 04:30:30;;;;;;;15.70;8.75;;;1.40;92.90;;;;;;5001792;28;25074;-73
2022/02/28 04:32:56;;;;;;;13.07;8.45;;;1.40;92.90;;;;;;5001072;28;25056;-74
2022/02/28 04:35:21;;;;;;;18.63;8.82;;;1.40;93.00;;;;;;5009901;28;25071;-74
2022/02/28 04:37:47;;;;;;;15.65;9.20;;;1.40;93.00;;;;;;5011428;28;25048;-73
2022/02/28 04:40:13;;;;;;;16.77;9.07;;;1.30;92.90;;;;;;5011287;28;25076;-73
2022/02/28 04:42:39;;;;;;;17.00;8.80;;;1.30;93.00;;;;;;5013960;28;25123;-72
2022/02/28 04:45:05;;;;;;;19.75;9.45;;;1.30;93.10;;;;;;5023608;28;25097;-72
2022/02/28 04:47:31;;;;;;;18.27;9.27;;;1.20;93.20;;;;;;5035770;28;25110;-75
2022/02/28 04:49:57;;;;;;;16.17;8.60;;;1.30;93.30;;;;;;5033666;28;25072;-74
2022/02/28 04:52:22;;;;;;;15.65;8.43;;;1.30;93.20;;;;;;5033222;28;25047;-76
2022/02/28 04:54:48;;;;;;;18.08;9.27;;;1.30;93.30;;;;;;5014203;28;25077;-75
2022/02/28 04:57:13;;;;;;;18.30;8.82;;;1.30;93.20;;;;;;5022863;28;25069;-75
2022/02/28 04:59:39;;;;;;;18.17;7.60;;;1.20;93.20;;;;;;5014435;28;25140;-74
2022/02/28 05:02:05;;;;;;;17.10;8.00;;;1.20;93.20;;;;;;5011342;28;25120;-73
2022/02/28 05:04:31;;;;;;;17.35;8.63;;;1.20;93.30;;;;;;5011585;28;25066;-73
2022/02/28 05:06:57;;;;;;;14.25;8.38;;;1.20;93.30;;;;;;5011669;28;26199;-73
2022/02/28 05:09:22;;;;;;;13.93;8.48;;;1.20;93.20;;;;;;5009662;28;25068;-73
2022/02/28 05:11:48;;;;;;;19.65;8.60;;;1.20;93.20;;;;;;5009671;28;25054;-75
2022/02/28 05:14:14;;;;;;;14.68;8.48;;;1.20;93.20;;;;;;5008924;28;25178;-74
2022/02/28 05:16:41;;;;;;;15.45;8.68;;;1.20;93.20;;;;;;5009043;28;25074;-74
2022/02/28 05:19:07;;;;;;;18.70;8.52;;;1.10;93.20;;;;;;5008729;28;25062;-73
2022/02/28 05:21:34;;;;;;;13.10;7.97;;;1.10;93.50;;;;;;5008143;28;25045;-74
2022/02/28 05:24:00;;;;;;;11.55;8.60;;;1.10;93.20;;;;;;4977671;28;25102;-73
2022/02/28 05:26:25;;;;;;;15.02;9.00;;;1.10;93.30;;;;;;5000922;28;25099;-73
2022/02/28 05:28:51;;;;;;;18.65;8.25;;;1.10;93.30;;;;;;4995951;28;25074;-73
2022/02/28 05:31:16;;;;;;;19.77;10.40;;;1.10;93.40;;;;;;4977813;28;25149;-73
2022/02/28 05:33:42;;;;;;;15.63;7.90;;;1.10;93.30;;;;;;4994198;28;25117;-73
2022/02/28 05:36:07;;;;;;;13.93;8.27;;;1.10;93.40;;;;;;4995207;28;25061;-75
2022/02/28 05:38:33;;;;;;;16.20;8.85;;;1.10;93.40;;;;;;4996570;28;25106;-73
2022/02/28 05:40:59;;;;;;;17.63;9.35;;;1.10;93.60;;;;;;4994852;28;25143;-72
2022/02/28 05:43:25;;;;;;;14.38;8.25;;;1.10;93.70;;;;;;5003294;28;25059;-72
2022/02/28 05:45:51;;;;;;;16.92;8.45;;;1.10;93.60;;;;;;4993041;28;25073;-72
2022/02/28 05:48:16;;;;;;;11.77;8.10;;;1.10;93.40;;;;;;5007093;28;25069;-74
2022/02/28 05:50:42;;;;;;;15.07;8.52;;;1.10;93.20;;;;;;5009597;28;25134;-71
2022/02/28 05:53:08;;;;;;;14.95;7.95;;;1.10;93.20;;;;;;4990981;28;25059;-72
2022/02/28 05:55:36;;;;;;;16.48;8.43;;;1.10;93.30;;;;;;5010728;28;25073;-72
2022/02/28 05:58:02;;;;;;;16.38;7.90;;;1.00;93.40;;;;;;4990777;28;25089;-71
2022/02/28 06:00:27;;;;;;;13.45;8.18;;;1.10;93.40;;;;;;4987391;28;25062;-72
2022/02/28 06:02:53;;;;;;;15.77;7.82;;;1.10;93.20;;;;;;4996833;28;25108;-73
2022/02/28 06:05:19;;;;;;;13.65;8.30;;;1.10;92.80;;;;;;5008149;28;25058;-73
2022/02/28 06:07:45;;;;;;;13.80;7.50;;;1.10;92.80;;;;;;5008329;28;25072;-72
2022/02/28 06:10:10;;;;;;;12.32;7.45;;;1.20;92.60;;;;;;5009779;28;25142;-73
2022/02/28 06:12:36;;;;;;;14.32;7.95;;;1.20;92.40;;;;;;5009544;28;25121;-75
2022/02/28 06:15:01;;;;;;;11.63;7.57;;;1.30;92.20;;;;;;5009321;28;25081;-72
2022/02/28 06:17:27;;;;;;;12.95;7.78;;;1.30;92.00;;;;;;5008646;28;25075;-73
2022/02/28 06:19:52;;;;;;;16.83;7.88;;;1.20;91.90;;;;;;5009548;28;25112;-72
2022/02/28 06:22:18;;;;;;;11.75;6.90;;;1.20;91.80;;;;;;5002754;28;25062;-73
2022/02/28 06:24:43;;;;;;;15.68;8.10;;;1.20;91.80;;;;;;5000720;28;25159;-74
2022/02/28 06:27:09;;;;;;;12.90;7.25;;;1.20;91.70;;;;;;4989132;28;25064;-75
2022/02/28 06:29:35;;;;;;;15.30;8.25;;;1.20;91.80;;;;;;4975040;28;25059;-75
2022/02/28 06:32:00;;;;;;;13.30;7.30;;;1.10;91.70;;;;;;4993686;28;25067;-72
2022/02/28 06:34:31;;;;;;;15.02;7.93;;;1.10;91.90;;;;;;4986387;28;25065;-74
2022/02/28 06:36:58;;;;;;;15.93;8.32;;;1.10;92.00;;;;;;4993450;28;25071;-73
2022/02/28 06:39:23;;;;;;;15.95;8.35;;;1.10;91.90;;;;;;4998754;28;25168;-73
2022/02/28 06:41:49;;;;;;;11.77;7.60;;;1.00;92.00;;;;;;4998751;28;25104;-72
2022/02/28 06:44:14;;;;;;;13.75;8.50;;;1.00;92.10;;;;;;5007174;28;25128;-73
2022/02/28 06:46:40;;;;;;;17.60;8.52;;;1.00;92.20;;;;;;5004939;28;25053;-74
2022/02/28 06:49:05;;;;;;;16.40;7.85;;;1.00;92.20;;;;;;4996029;28;25063;-71
2022/02/28 06:51:31;;;;;;;14.18;7.85;;;1.00;92.60;;;;;;5013897;28;25051;-74
2022/02/28 06:53:56;;;;;;;15.93;9.10;;;0.90;92.70;;;;;;5021016;28;25063;-73
2022/02/28 06:56:22;;;;;;;11.65;8.65;;;0.90;92.70;;;;;;5020112;28;25059;-71
2022/02/28 06:58:47;;;;;;;12.35;7.85;;;0.90;92.90;;;;;;5011844;28;25158;-72
2022/02/28 07:01:13;;;;;;;15.05;8.82;;;0.90;93.20;;;;;;5021115;28;25079;-71
2022/02/28 07:03:39;;;;;;;16.88;8.48;;;0.90;93.20;;;;;;5000654;28;25057;-72
2022/02/28 07:06:05;;;;;;;19.23;8.85;;;0.90;93.20;;;;;;5000652;28;25076;-73
2022/02/28 07:08:32;;;;;;;17.85;9.30;;;0.90;93.40;;;;;;5000495;28;25143;-72
2022/02/28 07:10:58;;;;;;;15.32;8.60;;;0.90;93.40;;;;;;5001412;28;25078;-72
2022/02/28 07:13:25;;;;;;;16.17;8.70;;;1.00;93.40;;;;;;4997288;28;25091;-71
2022/02/28 07:15:52;;;;;;;18.20;8.35;;;1.00;93.50;;;;;;4999292;28;25081;-71
2022/02/28 07:18:17;;;;;;;18.65;8.63;;;1.00;93.40;;;;;;4990870;28;25551;-73
2022/02/28 07:20:43;;;;;;;14.27;8.20;;;1.10;93.40;;;;;;4999192;28;25082;-72
2022/02/28 07:23:09;;;;;;;18.30;7.95;;;1.20;93.40;;;;;;4991504;28;25139;-72
2022/02/28 07:25:35;;;;;;;15.32;7.70;;;1.20;93.20;;;;;;4992801;28;25082;-72
2022/02/28 07:28:02;;;;;;;15.30;8.93;;;1.30;93.10;;;;;;4994290;28;25079;-73
2022/02/28 07:30:28;;;;;;;15.80;8.38;;;1.40;92.90;;;;;;4994073;28;25077;-71
2022/02/28 07:32:54;;;;;;;13.80;8.02;;;1.50;92.50;;;;;;4997720;28;25070;-73
2022/02/28 07:35:19;;;;;;;14.02;7.85;;;1.50;92.40;;;;;;4996392;28;25062;-73
2022/02/28 07:37:46;;;;;;;13.68;9.07;;;1.70;92.10;;;;;;5000563;28;25079;-72
2022/02/28 07:40:12;;;;;;;13.98;8.80;;;1.80;91.80;;;;;;4999110;28;25085;-73
2022/02/28 07:42:38;;;;;;;15.43;9.00;;;1.90;91.50;;;;;;4998596;28;25068;-73
2022/02/28 07:45:07;;;;;;;15.30;8.80;;;1.90;91.30;;;;;;5001706;28;25103;-73
2022/02/28 07:47:32;;;;;;;11.90;7.20;;;2.00;91.00;;;;;;5000700;28;25059;-72
2022/02/28 07:49:58;;;;;;;15.45;8.45;;;2.10;90.70;;;;;;5003845;28;25073;-72
2022/02/28 07:52:24;;;;;;;15.48;8.57;;;2.20;90.30;;;;;;5001346;28;25111;-73
2022/02/28 07:54:49;;;;;;;16.35;8.25;;;2.40;89.40;;;;;;4994148;28;25070;-72
2022/02/28 07:57:15;;;;;;;14.35;7.50;;;2.60;88.40;;;;;;4995309;28;25136;-74
2022/02/28 07:59:41;;;;;;;15.50;7.75;;;2.60;86.90;;;;;;4999361;28;25137;-72
2022/02/28 08:02:07;;;;;;;13.35;7.10;;;2.80;84.60;;;;;;5000201;28;25067;-73
2022/02/28 08:04:33;;;;;;;12.25;7.40;;;2.90;83.10;;;;;;4996553;28;25057;-72
2022/02/28 08:06:59;;;;;;;11.43;7.60;;;3.10;82.60;;;;;;5002808;28;25072;-74
2022/02/28 08:09:26;;;;;;;16.10;7.80;;;3.10;80.80;;;;;;4993884;28;25089;-72
2022/02/28 08:11:53;;;;;;;15.15;7.15;;;3.10;80.40;;;;;;5002988;28;25085;-71
2022/02/28 08:14:19;;;;;;;11.23;7.15;;;3.30;78.60;;;;;;5001200;28;25150;-72
2022/02/28 08:16:44;;;;;;;10.95;7.00;;;3.40;77.70;;;;;;5000647;28;25063;-72
2022/02/28 08:19:10;;;;;;;11.05;7.13;;;3.50;77.80;;;;;;4995502;28;25062;-72
2022/02/28 08:21:35;;;;;;;10.43;7.00;;;3.50;77.10;;;;;;4997739;28;25106;-73
2022/02/28 08:24:01;;;;;;;12.52;7.22;;;3.60;76.30;;;;;;4992040;28;25163;-72
2022/02/28 08:26:27;;;;;;;13.45;7.30;;;3.70;75.50;;;;;;5005384;28;25058;-73
2022/02/28 08:28:52;;;;;;;16.40;7.70;;;3.80;73.80;;;;;;5010389;28;25079;-74
2022/02/28 08:31:18;;;;;;;12.75;7.60;;;3.90;73.80;;;;;;5007763;28;25130;-73
2022/02/28 08:33:43;;;;;;;14.07;7.47;;;4.00;73.20;;;;;;4984130;28;25056;-72
2022/02/28 08:36:09;;;;;;;11.60;6.72;;;4.10;72.10;;;;;;5000528;28;25507;-73
2022/02/28 08:38:34;;;;;;;13.20;7.57;;;4.30;71.70;;;;;;5003566;28;25079;-74
2022/02/28 08:41:00;;;;;;;11.60;7.13;;;4.50;70.20;;;;;;5001087;28;25069;-71
2022/02/28 08:43:26;;;;;;;10.48;7.97;;;4.60;68.60;;;;;;5008738;28;25081;-72
2022/02/28 08:45:53;;;;;;;12.50;7.38;;;4.70;68.80;;;;;;4990190;28;25053;-71
2022/02/28 08:48:20;;;;;;;12.27;6.57;;;4.80;69.10;;;;;;5002387;28;25072;-72
2022/02/28 08:50:46;;;;;;;14.70;6.85;;;4.90;67.70;;;;;;5002336;28;25065;-74
2022/02/28 08:53:11;;;;;;;10.27;7.13;;;5.00;66.90;;;;;;5008174;28;25065;-73
2022/02/28 08:55:37;;;;;;;9.73;6.43;;;5.10;64.90;;;;;;5008526;28;25086;-73
2022/02/28 08:58:03;;;;;;;10.93;7.47;;;5.30;65.70;;;;;;4998834;28;25108;-75
2022/02/28 09:00:29;;;;;;;14.68;7.53;;;5.50;64.10;;;;;;5001609;28;25132;-74
2022/02/28 09:02:54;;;;;;;14.55;7.60;;;5.60;65.40;;;;;;5000689;28;25139;-74
2022/02/28 09:05:20;;;;;;;14.90;7.18;;;5.90;64.00;;;;;;5005324;28;25093;-71
2022/02/28 09:07:46;;;;;;;9.48;6.70;;;5.80;63.30;;;;;;5004424;28;25073;-72
2022/02/28 09:10:12;;;;;;;10.55;6.85;;;6.10;61.80;;;;;;5008565;28;25050;-73
2022/02/28 09:12:38;;;;;;;16.65;7.20;;;6.10;60.50;;;;;;5010572;28;25064;-72
2022/02/28 09:15:05;;;;;;;13.75;7.55;;;6.30;61.10;;;;;;5010217;28;25097;-72
2022/02/28 09:17:32;;;;;;;12.02;7.22;;;6.50;60.40;;;;;;5010230;28;25066;-71
2022/02/28 09:19:58;;;;;;;12.13;6.95;;;6.30;57.50;;;;;;5011589;28;25082;-72
2022/02/28 09:22:24;;;;;;;11.80;6.88;;;6.20;61.20;;;;;;5006796;28;25080;-73
2022/02/28 09:24:49;;;;;;;13.20;7.80;;;6.50;58.20;;;;;;5009434;28;25076;-76
2022/02/28 09:27:15;;;;;;;12.45;7.03;;;6.30;57.80;;;;;;4992129;28;25124;-74
2022/02/28 09:29:40;;;;;;;10.98;7.85;;;6.50;59.20;;;;;;5008907;28;25091;-74
2022/02/28 09:32:07;;;;;;;14.20;7.63;;;7.00;58.80;;;;;;5009697;28;25086;-72
2022/02/28 09:34:32;;;;;;;11.93;8.00;;;7.50;55.90;;;;;;5008424;28;25086;-74
2022/02/28 09:36:59;;;;;;;13.35;7.40;;;7.50;54.20;;;;;;4987865;28;25055;-74
2022/02/28 09:39:25;;;;;;;10.63;7.22;;;7.30;53.80;;;;;;5007018;28;25156;-75
2022/02/28 09:41:53;;;;;;;15.90;7.60;;;7.10;54.80;;;;;;5009582;28;25099;-73
2022/02/28 09:44:21;;;;;;;13.57;7.75;;;7.10;54.00;;;;;;5009136;28;25080;-75
2022/02/28 09:46:48;;;;;;;11.27;7.03;;;7.00;53.50;;;;;;5009766;28;25080;-73
2022/02/28 09:49:14;;;;;;;11.70;7.68;;;6.80;54.00;;;;;;5010048;28;25062;-75
2022/02/28 09:51:40;;;;;;;14.52;7.50;;;6.80;54.40;;;;;;5010516;28;25146;-75
2022/02/28 09:54:06;;;;;;;13.18;7.93;;;6.80;54.00;;;;;;5010984;28;25100;-75
2022/02/28 09:56:33;;;;;;;13.27;8.48;;;7.00;54.50;;;;;;5010038;28;25055;-75
2022/02/28 09:58:59;;;;;;;9.75;7.35;;;7.20;54.10;;;;;;5011921;28;25087;-74
2022/02/28 10:01:25;;;;;;;9.05;6.70;;;7.40;53.60;;;;;;5011669;28;25070;-73
2022/02/28 10:03:51;;;;;;;10.05;7.40;;;7.80;53.90;;;;;;5010062;28;25051;-75
2022/02/28 10:06:17;;;;;;;10.77;7.15;;;7.90;51.60;;;;;;5009873;28;25102;-73
2022/02/28 10:08:47;;;;;;;12.98;7.45;;;8.10;50.70;;;;;;5010993;28;25099;-76
2022/02/28 10:11:26;;;;;;;12.60;7.43;;;8.00;50.00;;;;;;5009399;28;25076;-75
2022/02/28 10:13:53;;;;;;;12.02;6.70;;;8.20;49.80;;;;;;5007560;28;25052;-75
2022/02/28 10:16:41;;;;;;;11.25;6.65;;;8.50;49.70;;;;;;5007686;28;25064;-74
2022/02/28 10:19:23;;;;;;;10.45;7.13;;;8.60;48.60;;;;;;5014863;28;25105;-75
2022/02/28 10:21:54;;;;;;;12.00;6.90;;;8.50;47.00;;;;;;5035081;28;25092;-75
2022/02/28 10:24:34;;;;;;;11.00;7.20;;;8.20;47.20;;;;;;5022786;28;25133;-76
2022/02/28 10:27:01;;;;;;;14.88;7.70;;;8.10;47.70;;;;;;5007315;28;25173;-75
2022/02/28 10:29:32;;;;;;;8.32;6.72;;;8.20;47.60;;;;;;5010617;28;25126;-75
2022/02/28 10:32:04;;;;;;;14.00;7.47;;;8.40;48.40;;;;;;4993352;28;25076;-74
2022/02/28 10:34:32;;;;;;;10.85;7.20;;;8.40;47.90;;;;;;5007278;28;25043;-75
2022/02/28 10:36:58;;;;;;;13.05;7.18;;;8.60;46.50;;;;;;5009794;28;25079;-75
2022/02/28 10:39:35;;;;;;;11.75;7.78;;;8.60;46.50;;;;;;5008623;28;25142;-75
2022/02/28 10:42:12;;;;;;;11.23;7.38;;;8.70;46.00;;;;;;5001541;28;25070;-76
2022/02/28 10:44:38;;;;;;;10.77;7.18;;;8.70;47.20;;;;;;5008546;28;25052;-76
2022/02/28 10:47:07;;;;;;;10.90;8.00;;;8.80;45.60;;;;;;5004817;28;25068;-76
2022/02/28 10:49:34;;;;;;;11.75;7.78;;;8.80;44.10;;;;;;5009004;28;25077;-74
2022/02/28 10:52:07;;;;;;;11.20;7.22;;;9.00;45.40;;;;;;5004071;28;25070;-76
2022/02/28 10:54:34;;;;;;;;;;;9.20;44.40;;;;;;5009361;28;27067;-74
2022/02/28 10:57:01;;;;;;;12.90;7.80;;;8.90;43.10;;;;;;5000957;28;24079;-74
2022/02/28 10:59:30;;;;;;;13.20;7.68;;;8.80;44.60;;;;;;5007258;28;25055;-75
2022/02/28 11:01:56;;;;;;;14.35;7.82;;;9.00;43.60;;;;;;4990334;28;25110;-76
2022/02/28 11:04:39;;;;;;;12.75;7.40;;;9.10;45.40;;;;;;5003216;28;25082;-73
2022/02/28 11:07:10;;;;;;;12.15;8.43;;;9.20;43.10;;;;;;5003181;28;25089;-75
2022/02/28 11:09:41;;;;;;;9.93;6.82;;;9.60;41.70;;;;;;5012846;28;25171;-77
2022/02/28 11:12:31;;;;;;;13.25;7.20;;;9.90;40.80;;;;;;4995070;28;25066;-75
2022/02/28 11:14:59;;;;;;;9.30;6.80;;;9.90;41.00;;;;;;4994228;28;25048;-75
2022/02/28 11:17:28;;;;;;;12.55;7.82;;;10.10;39.10;;;;;;4979870;28;25066;-76
2022/02/28 11:19:54;;;;;;;15.05;7.78;;;9.60;39.30;;;;;;5006437;28;25056;-75
2022/02/28 11:22:21;;;;;;;15.05;8.00;;;10.10;42.20;;;;;;5001650;28;25138;-73
2022/02/28 11:24:47;;;;;;;13.85;8.38;;;10.50;39.20;;;;;;5004950;28;25087;-73
2022/02/28 11:27:14;;;;;;;11.60;7.10;;;10.80;37.40;;;;;;5007566;28;25058;-76
2022/02/28 11:29:42;;;;;;;10.25;7.70;;;10.90;39.40;;;;;;5014955;28;25067;-74
2022/02/28 11:32:08;;;;;;;9.60;6.85;;;11.40;36.70;;;;;;5015350;28;25070;-73
2022/02/28 11:34:35;;;;;;;10.35;7.30;;;11.70;33.40;;;;;;5016009;28;25075;-75
2022/02/28 11:37:04;;;;;;;11.60;7.70;;;11.30;32.50;;;;;;5014536;28;25325;-74
2022/02/28 11:39:35;;;;;;;11.57;8.20;;;10.80;37.00;;;;;;5013510;28;25053;-75
2022/02/28 11:42:04;;;;;;;14.20;7.60;;;10.70;35.80;;;;;;5004490;28;25057;-76
2022/02/28 11:44:35;;;;;;;10.73;7.80;;;11.00;36.30;;;;;;5006804;28;25093;-74
2022/02/28 11:47:04;;;;;;;9.90;7.33;;;11.10;34.50;;;;;;4998331;28;25103;-76
2022/02/28 11:49:41;;;;;;;13.45;7.97;;;11.70;34.20;;;;;;5004426;28;25099;-73
2022/02/28 11:52:32;;;;;;;10.63;6.75;;;12.10;31.30;;;;;;5013031;28;25150;-75
2022/02/28 11:55:06;;;;;;;9.30;6.72;;;12.30;29.60;;;;;;5007536;28;25060;-73
2022/02/28 11:57:51;;;;;;;10.82;7.07;;;12.50;27.80;;;;;;5007101;28;25135;-73
2022/02/28 12:00:47;;;;;;;13.13;7.00;;;12.40;26.40;;;;;;5012210;28;25041;-75
2022/02/28 12:03:30;;;;;;;15.75;8.07;;;12.40;27.50;;;;;;5008774;28;25072;-76
2022/02/28 12:05:56;;;;;;;9.60;7.05;;;12.50;27.00;;;;;;5015099;28;25070;-75
2022/02/28 12:08:40;;;;;;;19.58;8.82;;;12.90;25.10;;;;;;5012584;28;25262;-78
2022/02/28 12:11:22;;;;;;;13.85;7.00;;;13.20;25.90;;;;;;4994660;28;25061;-76
2022/02/28 12:14:04;;;;;;;;;;;13.40;23.80;;;;;;5012575;28;25054;-77
2022/02/28 12:19:30;;;;;;;11.73;7.15;;;13.00;22.60;;;;;;5011864;28;25083;-76
2022/02/28 12:22:05;;;;;;;10.57;6.88;;;12.50;25.50;;;;;;5011806;28;25080;-72
2022/02/28 12:24:53;;;;;;;11.85;7.10;;;12.50;25.30;;;;;;5012356;28;25127;-74
2022/02/28 12:27:18;;;;;;;11.68;6.05;;;12.60;24.30;;;;;;5011482;28;25168;-74
2022/02/28 12:29:45;;;;;;;10.43;6.25;;;12.50;21.10;;;;;;5011340;28;25090;-74
2022/02/28 12:32:10;;;;;;;8.55;6.25;;;12.40;22.70;;;;;;5011282;28;25092;-73
2022/02/28 12:34:36;;;;;;;9.13;5.47;;;12.50;22.30;;;;;;5017438;28;25101;-75
2022/02/28 12:37:02;;;;;;;7.60;5.85;;;12.60;18.40;;;;;;5013170;28;25168;-75
2022/02/28 12:39:27;;;;;;;9.38;5.47;;;12.90;19.50;;;;;;4994276;28;25135;-74
2022/02/28 12:41:56;;;;;;;12.02;5.72;;;13.00;19.30;;;;;;5025582;28;25121;-74
2022/02/28 12:44:23;;;;;;;6.45;5.05;;;12.70;16.70;;;;;;5015287;28;25066;-74
2022/02/28 12:46:53;;;;;;;8.05;5.43;;;12.00;18.20;;;;;;5024635;28;25050;-74
2022/02/28 12:49:23;;;;;;;7.65;5.10;;;12.20;18.50;;;;;;5036069;28;25077;-78